sensor_id;sensor_type;location;lat;lon;timestamp;pressure;altitude;pressure_sealevel;temperature;humidity
11912;BME280;6016;41.928;25.556;2023-03-23T00:01:39;99079.94;;;12.03;81.32
11912;BME280;6016;41.928;25.556;2023-03-23T00:04:06;99038.41;;;11.85;81.44
11912;BME280;6016;41.928;25.556;2023-03-23T00:06:34;99007.63;;;11.48;81.97
11912;BME280;6016;41.928;25.556;2023-03-23T00:09:02;99080.13;;;11.91;82.85
11912;BME280;6016;41.928;25.556;2023-03-23T00:11:30;99069.59;;;12.00;82.69
11912;BME280;6016;41.928;25.556;2023-03-23T00:13:59;99044.97;;;11.81;82.12
11912;BME280;6016;41.928;25.556;2023-03-23T00:16:29;99079.19;;;12.10;81.83
11912;BME280;6016;41.928;25.556;2023-03-23T00:18:59;99074.94;;;12.18;80.92
11912;BME280;6016;41.928;25.556;2023-03-23T00:21:28;99068.16;;;12.15;81.09
11912;BME280;6016;41.928;25.556;2023-03-23T00:24:03;99070.50;;;12.18;80.04
11912;BME280;6016;41.928;25.556;2023-03-23T00:26:31;99044.72;;;12.02;80.99
11912;BME280;6016;41.928;25.556;2023-03-23T00:29:00;99063.38;;;12.19;79.32
11912;BME280;6016;41.928;25.556;2023-03-23T00:31:27;99070.50;;;12.18;80.29
11912;BME280;6016;41.928;25.556;2023-03-23T00:33:57;98978.53;;;11.58;80.92
11912;BME280;6016;41.928;25.556;2023-03-23T00:36:26;99050.53;;;12.06;80.56
11912;BME280;6016;41.928;25.556;2023-03-23T00:38:54;99031.69;;;11.91;79.88
11912;BME280;6016;41.928;25.556;2023-03-23T00:41:26;99065.34;;;12.17;80.58
11912;BME280;6016;41.928;25.556;2023-03-23T00:43:55;99058.03;;;12.10;79.86
11912;BME280;6016;41.928;25.556;2023-03-23T00:46:23;99064.34;;;12.18;80.40
11912;BME280;6016;41.928;25.556;2023-03-23T00:48:50;99050.72;;;11.94;79.58
11912;BME280;6016;41.928;25.556;2023-03-23T00:51:17;99065.97;;;12.01;79.19
11912;BME280;6016;41.928;25.556;2023-03-23T00:53:44;99062.53;;;12.00;79.13
11912;BME280;6016;41.928;25.556;2023-03-23T00:56:12;99010.00;;;11.69;80.72
11912;BME280;6016;41.928;25.556;2023-03-23T00:58:40;99059.16;;;12.08;80.34
11912;BME280;6016;41.928;25.556;2023-03-23T01:01:07;98999.91;;;11.64;78.55
11912;BME280;6016;41.928;25.556;2023-03-23T01:03:35;99055.53;;;12.09;80.20
11912;BME280;6016;41.928;25.556;2023-03-23T01:06:06;99056.38;;;12.09;79.39
11912;BME280;6016;41.928;25.556;2023-03-23T01:08:33;98999.50;;;11.59;80.01
11912;BME280;6016;41.928;25.556;2023-03-23T01:11:04;99052.34;;;12.05;80.65
11912;BME280;6016;41.928;25.556;2023-03-23T01:13:32;99056.81;;;12.05;80.06
11912;BME280;6016;41.928;25.556;2023-03-23T01:16:00;99054.47;;;12.02;80.50
11912;BME280;6016;41.928;25.556;2023-03-23T01:18:28;99054.06;;;11.96;80.32
11912;BME280;6016;41.928;25.556;2023-03-23T01:20:55;99042.72;;;11.86;80.83
11912;BME280;6016;41.928;25.556;2023-03-23T01:23:22;99038.84;;;11.80;81.22
11912;BME280;6016;41.928;25.556;2023-03-23T01:25:49;99063.41;;;11.91;80.83
11912;BME280;6016;41.928;25.556;2023-03-23T01:28:19;99054.50;;;11.92;81.29
11912;BME280;6016;41.928;25.556;2023-03-23T01:30:46;99055.34;;;11.92;82.19
11912;BME280;6016;41.928;25.556;2023-03-23T01:33:14;99048.22;;;11.93;81.42
11912;BME280;6016;41.928;25.556;2023-03-23T01:35:41;99048.09;;;11.94;81.25
11912;BME280;6016;41.928;25.556;2023-03-23T01:38:08;99033.97;;;11.86;81.38
11912;BME280;6016;41.928;25.556;2023-03-23T01:40:35;98785.81;;;10.37;81.33
11912;BME280;6016;41.928;25.556;2023-03-23T01:43:02;99038.72;;;12.00;81.18
11912;BME280;6016;41.928;25.556;2023-03-23T01:45:32;99037.63;;;12.03;81.74
11912;BME280;6016;41.928;25.556;2023-03-23T01:48:05;99036.91;;;12.01;81.51
11912;BME280;6016;41.928;25.556;2023-03-23T01:50:39;99040.28;;;12.03;81.30
11912;BME280;6016;41.928;25.556;2023-03-23T01:53:10;99001.34;;;11.77;80.82
11912;BME280;6016;41.928;25.556;2023-03-23T01:55:40;99041.09;;;12.03;81.32
11912;BME280;6016;41.928;25.556;2023-03-23T01:58:08;99052.50;;;12.04;81.63
11912;BME280;6016;41.928;25.556;2023-03-23T02:00:36;99042.75;;;12.04;82.02
11912;BME280;6016;41.928;25.556;2023-03-23T02:03:06;99007.84;;;11.82;81.10
11912;BME280;6016;41.928;25.556;2023-03-23T02:05:40;99043.72;;;12.03;81.33
11912;BME280;6016;41.928;25.556;2023-03-23T02:08:09;99046.13;;;11.96;82.00
11912;BME280;6016;41.928;25.556;2023-03-23T02:10:37;99044.78;;;11.92;81.55
11912;BME280;6016;41.928;25.556;2023-03-23T02:13:06;99052.25;;;11.97;81.58
11912;BME280;6016;41.928;25.556;2023-03-23T02:15:40;99052.75;;;12.01;82.36
11912;BME280;6016;41.928;25.556;2023-03-23T02:18:20;98971.50;;;11.48;81.69
11912;BME280;6016;41.928;25.556;2023-03-23T02:21:23;99052.53;;;11.94;80.87
11912;BME280;6016;41.928;25.556;2023-03-23T02:26:50;99043.69;;;11.85;82.07
11912;BME280;6016;41.928;25.556;2023-03-23T02:35:00;99049.28;;;11.82;82.29
11912;BME280;6016;41.928;25.556;2023-03-23T02:37:32;99070.06;;;11.95;82.68
11912;BME280;6016;41.928;25.556;2023-03-23T02:40:04;99062.97;;;11.95;82.01
11912;BME280;6016;41.928;25.556;2023-03-23T02:42:38;99023.50;;;11.66;81.75
11912;BME280;6016;41.928;25.556;2023-03-23T02:45:08;99028.66;;;11.67;81.81
11912;BME280;6016;41.928;25.556;2023-03-23T02:47:38;99013.16;;;11.54;81.61
11912;BME280;6016;41.928;25.556;2023-03-23T02:50:09;99067.47;;;11.85;80.68
11912;BME280;6016;41.928;25.556;2023-03-23T02:52:39;98991.53;;;11.41;81.38
11912;BME280;6016;41.928;25.556;2023-03-23T02:55:08;99019.16;;;11.47;81.28
11912;BME280;6016;41.928;25.556;2023-03-23T02:57:37;99056.44;;;11.72;80.67
11912;BME280;6016;41.928;25.556;2023-03-23T03:00:05;99083.50;;;11.84;81.27
11912;BME280;6016;41.928;25.556;2023-03-23T03:02:36;99079.03;;;11.84;80.89
11912;BME280;6016;41.928;25.556;2023-03-23T03:05:13;99081.13;;;11.80;81.16
11912;BME280;6016;41.928;25.556;2023-03-23T03:07:55;99069.28;;;11.66;81.37
11912;BME280;6016;41.928;25.556;2023-03-23T03:10:28;99036.84;;;11.46;80.55
11912;BME280;6016;41.928;25.556;2023-03-23T03:13:01;99083.25;;;11.77;81.07
11912;BME280;6016;41.928;25.556;2023-03-23T03:15:33;99088.44;;;11.68;80.93
11912;BME280;6016;41.928;25.556;2023-03-23T03:18:06;99085.91;;;11.77;80.96
11912;BME280;6016;41.928;25.556;2023-03-23T03:20:39;99086.59;;;11.79;81.39
11912;BME280;6016;41.928;25.556;2023-03-23T03:23:08;99089.72;;;11.64;80.81
11912;BME280;6016;41.928;25.556;2023-03-23T03:25:38;99002.66;;;11.17;81.81
11912;BME280;6016;41.928;25.556;2023-03-23T03:28:13;99087.81;;;11.85;81.13
11912;BME280;6016;41.928;25.556;2023-03-23T03:30:42;99092.25;;;11.84;81.32
11912;BME280;6016;41.928;25.556;2023-03-23T03:33:12;99079.00;;;11.66;81.64
11912;BME280;6016;41.928;25.556;2023-03-23T03:35:42;99092.66;;;11.89;81.70
11912;BME280;6016;41.928;25.556;2023-03-23T03:38:10;99016.59;;;11.37;80.95
11912;BME280;6016;41.928;25.556;2023-03-23T03:40:37;99094.06;;;11.84;81.79
11912;BME280;6016;41.928;25.556;2023-03-23T03:43:05;99088.34;;;11.88;81.36
11912;BME280;6016;41.928;25.556;2023-03-23T03:45:32;99063.53;;;11.71;81.86
11912;BME280;6016;41.928;25.556;2023-03-23T03:47:59;99091.50;;;11.92;81.62
11912;BME280;6016;41.928;25.556;2023-03-23T03:50:27;99095.13;;;11.91;82.47
11912;BME280;6016;41.928;25.556;2023-03-23T03:52:55;99097.22;;;11.87;80.77
11912;BME280;6016;41.928;25.556;2023-03-23T03:55:23;99097.22;;;11.87;81.33
11912;BME280;6016;41.928;25.556;2023-03-23T03:57:50;99102.50;;;11.87;81.84
11912;BME280;6016;41.928;25.556;2023-03-23T04:00:17;99044.31;;;11.51;81.93
11912;BME280;6016;41.928;25.556;2023-03-23T04:02:46;99070.31;;;11.74;81.31
11912;BME280;6016;41.928;25.556;2023-03-23T04:05:17;99050.88;;;11.47;81.65
11912;BME280;6016;41.928;25.556;2023-03-23T04:07:45;99086.78;;;11.67;82.78
11912;BME280;6016;41.928;25.556;2023-03-23T04:10:16;99100.13;;;11.66;82.30
11912;BME280;6016;41.928;25.556;2023-03-23T04:12:45;99092.88;;;11.68;83.01
11912;BME280;6016;41.928;25.556;2023-03-23T04:15:13;99037.34;;;11.32;82.68
11912;BME280;6016;41.928;25.556;2023-03-23T04:17:41;99092.75;;;11.70;82.30
11912;BME280;6016;41.928;25.556;2023-03-23T04:20:09;99093.03;;;11.66;82.71
11912;BME280;6016;41.928;25.556;2023-03-23T04:22:41;99076.84;;;11.51;82.18
11912;BME280;6016;41.928;25.556;2023-03-23T04:25:09;99107.91;;;11.67;82.80
11912;BME280;6016;41.928;25.556;2023-03-23T04:27:39;99032.38;;;11.19;81.61
11912;BME280;6016;41.928;25.556;2023-03-23T04:30:10;99110.00;;;11.64;81.48
11912;BME280;6016;41.928;25.556;2023-03-23T04:32:37;98881.78;;;10.07;82.16
11912;BME280;6016;41.928;25.556;2023-03-23T04:35:06;99118.00;;;11.54;82.76
11912;BME280;6016;41.928;25.556;2023-03-23T04:37:33;99122.03;;;11.48;82.90
11912;BME280;6016;41.928;25.556;2023-03-23T04:40:00;99121.75;;;11.51;83.45
11912;BME280;6016;41.928;25.556;2023-03-23T04:42:32;99120.47;;;11.56;83.05
11912;BME280;6016;41.928;25.556;2023-03-23T04:45:00;99124.81;;;11.57;83.16
11912;BME280;6016;41.928;25.556;2023-03-23T04:47:32;99121.19;;;11.58;83.20
11912;BME280;6016;41.928;25.556;2023-03-23T04:49:59;99128.69;;;11.52;83.82
11912;BME280;6016;41.928;25.556;2023-03-23T04:52:26;99108.16;;;11.36;83.50
11912;BME280;6016;41.928;25.556;2023-03-23T04:54:53;99136.47;;;11.54;82.68
11912;BME280;6016;41.928;25.556;2023-03-23T04:57:21;99130.22;;;11.55;83.11
11912;BME280;6016;41.928;25.556;2023-03-23T04:59:48;99136.19;;;11.57;82.79
11912;BME280;6016;41.928;25.556;2023-03-23T05:02:16;99060.31;;;11.11;83.07
11912;BME280;6016;41.928;25.556;2023-03-23T05:04:44;99136.88;;;11.59;82.27
11912;BME280;6016;41.928;25.556;2023-03-23T05:07:11;99132.44;;;11.60;83.87
11912;BME280;6016;41.928;25.556;2023-03-23T05:09:38;99142.69;;;11.63;82.55
11912;BME280;6016;41.928;25.556;2023-03-23T05:12:05;99142.44;;;11.56;81.87
11912;BME280;6016;41.928;25.556;2023-03-23T05:14:32;99150.06;;;11.59;82.22
11912;BME280;6016;41.928;25.556;2023-03-23T05:16:59;99114.72;;;11.32;83.29
11912;BME280;6016;41.928;25.556;2023-03-23T05:19:27;99133.97;;;11.52;82.66
11912;BME280;6016;41.928;25.556;2023-03-23T05:21:56;99158.25;;;11.66;82.56
11912;BME280;6016;41.928;25.556;2023-03-23T05:24:28;99159.09;;;11.66;83.38
11912;BME280;6016;41.928;25.556;2023-03-23T05:26:56;99161.16;;;11.73;82.97
11912;BME280;6016;41.928;25.556;2023-03-23T05:29:23;99164.88;;;11.80;82.37
11912;BME280;6016;41.928;25.556;2023-03-23T05:31:51;99173.88;;;11.87;82.13
11912;BME280;6016;41.928;25.556;2023-03-23T05:34:18;99174.97;;;11.94;82.38
11912;BME280;6016;41.928;25.556;2023-03-23T05:36:49;99167.41;;;12.00;82.17
11912;BME280;6016;41.928;25.556;2023-03-23T05:39:18;99159.75;;;12.06;82.18
11912;BME280;6016;41.928;25.556;2023-03-23T05:41:45;99147.53;;;12.05;81.06
11912;BME280;6016;41.928;25.556;2023-03-23T05:44:12;99145.19;;;12.02;81.12
11912;BME280;6016;41.928;25.556;2023-03-23T05:46:39;99100.53;;;11.71;79.95
11912;BME280;6016;41.928;25.556;2023-03-23T05:49:05;99138.63;;;11.96;79.81
11912;BME280;6016;41.928;25.556;2023-03-23T05:51:32;99175.63;;;12.06;80.39
11912;BME280;6016;41.928;25.556;2023-03-23T05:54:02;99170.56;;;12.13;81.23
11912;BME280;6016;41.928;25.556;2023-03-23T05:56:29;99100.00;;;11.67;80.73
11912;BME280;6016;41.928;25.556;2023-03-23T05:58:56;99178.72;;;12.02;81.22
11912;BME280;6016;41.928;25.556;2023-03-23T06:01:23;99147.06;;;11.82;81.50
11912;BME280;6016;41.928;25.556;2023-03-23T06:03:50;99181.63;;;12.08;80.58
11912;BME280;6016;41.928;25.556;2023-03-23T06:06:19;99116.47;;;11.51;81.49
11912;BME280;6016;41.928;25.556;2023-03-23T06:08:46;99147.44;;;11.87;81.20
11912;BME280;6016;41.928;25.556;2023-03-23T06:11:17;99176.56;;;12.15;81.29
11912;BME280;6016;41.928;25.556;2023-03-23T06:13:44;99184.06;;;12.20;81.18
11912;BME280;6016;41.928;25.556;2023-03-23T06:16:11;99190.47;;;12.17;80.39
11912;BME280;6016;41.928;25.556;2023-03-23T06:18:38;99199.94;;;12.20;80.56
11912;BME280;6016;41.928;25.556;2023-03-23T06:21:06;99204.81;;;12.15;80.64
11912;BME280;6016;41.928;25.556;2023-03-23T06:23:33;99190.28;;;12.29;81.21
11912;BME280;6016;41.928;25.556;2023-03-23T06:26:01;99195.13;;;12.33;80.82
11912;BME280;6016;41.928;25.556;2023-03-23T06:28:30;99193.97;;;12.36;79.94
11912;BME280;6016;41.928;25.556;2023-03-23T06:30:59;99200.41;;;12.33;79.66
11912;BME280;6016;41.928;25.556;2023-03-23T06:33:25;99201.34;;;12.32;79.95
11912;BME280;6016;41.928;25.556;2023-03-23T06:35:52;99211.88;;;12.24;81.96
11912;BME280;6016;41.928;25.556;2023-03-23T06:38:19;99187.16;;;12.15;80.50
11912;BME280;6016;41.928;25.556;2023-03-23T06:40:46;99205.84;;;12.32;80.44
11912;BME280;6016;41.928;25.556;2023-03-23T06:43:13;99209.03;;;12.35;80.07
11912;BME280;6016;41.928;25.556;2023-03-23T06:45:42;99208.19;;;12.35;79.84
11912;BME280;6016;41.928;25.556;2023-03-23T06:48:08;99054.84;;;11.33;79.86
11912;BME280;6016;41.928;25.556;2023-03-23T06:50:35;99197.97;;;12.22;80.42
11912;BME280;6016;41.928;25.556;2023-03-23T06:53:02;99191.25;;;12.28;80.11
11912;BME280;6016;41.928;25.556;2023-03-23T06:55:29;99217.19;;;12.42;79.41
11912;BME280;6016;41.928;25.556;2023-03-23T06:57:56;99197.91;;;12.32;79.74
11912;BME280;6016;41.928;25.556;2023-03-23T07:00:24;99221.50;;;12.43;79.37
11912;BME280;6016;41.928;25.556;2023-03-23T07:02:52;99230.19;;;12.35;79.21
11912;BME280;6016;41.928;25.556;2023-03-23T07:05:19;99230.75;;;12.29;78.89
11912;BME280;6016;41.928;25.556;2023-03-23T07:07:46;99183.56;;;11.96;80.14
11912;BME280;6016;41.928;25.556;2023-03-23T07:10:13;99212.81;;;12.05;79.94
11912;BME280;6016;41.928;25.556;2023-03-23T07:12:40;99232.19;;;12.23;80.72
11912;BME280;6016;41.928;25.556;2023-03-23T07:15:08;99196.09;;;12.04;81.31
11912;BME280;6016;41.928;25.556;2023-03-23T07:17:36;99224.03;;;12.35;80.64
11912;BME280;6016;41.928;25.556;2023-03-23T07:20:05;99231.31;;;12.33;80.67
11912;BME280;6016;41.928;25.556;2023-03-23T07:22:33;99228.31;;;12.46;80.65
11912;BME280;6016;41.928;25.556;2023-03-23T07:25:00;99199.94;;;12.38;80.97
11912;BME280;6016;41.928;25.556;2023-03-23T07:27:26;99234.44;;;12.64;81.36
11912;BME280;6016;41.928;25.556;2023-03-23T07:29:54;99198.94;;;12.21;80.75
11912;BME280;6016;41.928;25.556;2023-03-23T07:32:21;99230.50;;;12.50;81.64
11912;BME280;6016;41.928;25.556;2023-03-23T07:34:47;99229.00;;;12.48;82.40
11912;BME280;6016;41.928;25.556;2023-03-23T07:37:16;99239.63;;;12.38;82.14
11912;BME280;6016;41.928;25.556;2023-03-23T07:39:43;99245.47;;;12.60;81.69
11912;BME280;6016;41.928;25.556;2023-03-23T07:42:10;99234.75;;;12.61;81.87
11912;BME280;6016;41.928;25.556;2023-03-23T07:44:37;99171.88;;;12.27;81.35
11912;BME280;6016;41.928;25.556;2023-03-23T07:47:04;99245.28;;;12.89;81.62
11912;BME280;6016;41.928;25.556;2023-03-23T07:49:30;99262.91;;;12.80;80.77
11912;BME280;6016;41.928;25.556;2023-03-23T07:51:58;99247.47;;;12.76;80.29
11912;BME280;6016;41.928;25.556;2023-03-23T07:54:28;99247.84;;;12.81;80.66
11912;BME280;6016;41.928;25.556;2023-03-23T07:56:54;99241.34;;;12.75;80.70
11912;BME280;6016;41.928;25.556;2023-03-23T07:59:22;99261.78;;;12.83;81.51
11912;BME280;6016;41.928;25.556;2023-03-23T08:01:48;99262.16;;;12.88;81.87
11912;BME280;6016;41.928;25.556;2023-03-23T08:04:15;99257.22;;;12.93;82.37
11912;BME280;6016;41.928;25.556;2023-03-23T08:06:42;99268.75;;;12.84;81.08
11912;BME280;6016;41.928;25.556;2023-03-23T08:09:09;99265.47;;;12.90;81.85
11912;BME280;6016;41.928;25.556;2023-03-23T08:11:37;99267.22;;;13.00;80.61
11912;BME280;6016;41.928;25.556;2023-03-23T08:14:04;99265.47;;;12.90;81.85
11912;BME280;6016;41.928;25.556;2023-03-23T08:16:32;99271.53;;;13.01;80.97
11912;BME280;6016;41.928;25.556;2023-03-23T08:18:59;99269.66;;;12.93;81.41
11912;BME280;6016;41.928;25.556;2023-03-23T08:21:26;99267.38;;;12.98;80.98
11912;BME280;6016;41.928;25.556;2023-03-23T08:23:53;99266.06;;;13.20;81.67
11912;BME280;6016;41.928;25.556;2023-03-23T08:26:20;99268.56;;;13.40;80.87
11912;BME280;6016;41.928;25.556;2023-03-23T08:28:48;99271.53;;;13.37;80.03
11912;BME280;6016;41.928;25.556;2023-03-23T08:31:15;99238.16;;;13.08;79.88
11912;BME280;6016;41.928;25.556;2023-03-23T08:33:43;99231.59;;;13.12;80.06
11912;BME280;6016;41.928;25.556;2023-03-23T08:36:09;99272.66;;;13.34;80.50
11912;BME280;6016;41.928;25.556;2023-03-23T08:38:36;99278.78;;;13.35;80.21
11912;BME280;6016;41.928;25.556;2023-03-23T08:41:04;99278.41;;;13.48;80.02
11912;BME280;6016;41.928;25.556;2023-03-23T08:43:33;99213.09;;;13.20;79.55
11912;BME280;6016;41.928;25.556;2023-03-23T08:46:01;99276.13;;;13.79;78.76
11912;BME280;6016;41.928;25.556;2023-03-23T08:48:32;99280.25;;;14.00;77.85
11912;BME280;6016;41.928;25.556;2023-03-23T08:51:00;99213.94;;;13.66;77.36
11912;BME280;6016;41.928;25.556;2023-03-23T08:53:27;99250.69;;;13.87;76.97
11912;BME280;6016;41.928;25.556;2023-03-23T08:55:56;99284.97;;;14.15;75.64
11912;BME280;6016;41.928;25.556;2023-03-23T08:58:28;99277.34;;;14.20;76.06
11912;BME280;6016;41.928;25.556;2023-03-23T09:00:55;99220.84;;;13.85;75.86
11912;BME280;6016;41.928;25.556;2023-03-23T09:03:23;99281.19;;;14.26;76.26
11912;BME280;6016;41.928;25.556;2023-03-23T09:05:50;99283.03;;;14.25;76.45
11912;BME280;6016;41.928;25.556;2023-03-23T09:08:19;99283.88;;;14.34;76.88
11912;BME280;6016;41.928;25.556;2023-03-23T09:10:46;99279.41;;;14.34;75.34
11912;BME280;6016;41.928;25.556;2023-03-23T09:13:15;99290.09;;;14.51;75.29
11912;BME280;6016;41.928;25.556;2023-03-23T09:15:41;99280.19;;;14.61;75.44
11912;BME280;6016;41.928;25.556;2023-03-23T09:18:08;99283.81;;;14.69;75.11
11912;BME280;6016;41.928;25.556;2023-03-23T09:20:37;99235.97;;;14.35;72.72
11912;BME280;6016;41.928;25.556;2023-03-23T09:23:04;99249.91;;;14.46;72.53
11912;BME280;6016;41.928;25.556;2023-03-23T09:25:31;99205.91;;;14.18;71.95
11912;BME280;6016;41.928;25.556;2023-03-23T09:27:58;99239.63;;;14.43;71.40
11912;BME280;6016;41.928;25.556;2023-03-23T09:30:27;99265.88;;;14.54;72.58
11912;BME280;6016;41.928;25.556;2023-03-23T09:32:56;99278.00;;;14.65;72.23
11912;BME280;6016;41.928;25.556;2023-03-23T09:35:27;99251.97;;;14.60;73.75
11912;BME280;6016;41.928;25.556;2023-03-23T09:37:55;99278.25;;;14.80;71.70
11912;BME280;6016;41.928;25.556;2023-03-23T09:40:28;99282.22;;;14.84;71.84
11912;BME280;6016;41.928;25.556;2023-03-23T09:43:09;99285.06;;;14.83;71.48
11912;BME280;6016;41.928;25.556;2023-03-23T09:45:48;99258.09;;;14.61;71.17
11912;BME280;6016;41.928;25.556;2023-03-23T09:48:31;99281.44;;;14.92;72.30
11912;BME280;6016;41.928;25.556;2023-03-23T09:51:02;99277.94;;;15.08;72.17
11912;BME280;6016;41.928;25.556;2023-03-23T09:53:37;99269.16;;;15.08;70.33
11912;BME280;6016;41.928;25.556;2023-03-23T09:56:10;99240.13;;;15.14;70.65
11912;BME280;6016;41.928;25.556;2023-03-23T09:58:46;99271.47;;;15.52;69.83
11912;BME280;6016;41.928;25.556;2023-03-23T10:01:20;99269.66;;;15.44;69.38
11912;BME280;6016;41.928;25.556;2023-03-23T10:03:48;99258.88;;;15.13;69.70
11912;BME280;6016;41.928;25.556;2023-03-23T10:06:19;99226.00;;;15.05;68.90
11912;BME280;6016;41.928;25.556;2023-03-23T10:08:49;99292.75;;;15.36;67.80
11912;BME280;6016;41.928;25.556;2023-03-23T10:11:24;99214.53;;;15.05;66.31
11912;BME280;6016;41.928;25.556;2023-03-23T10:14:08;99273.31;;;15.52;67.18
11912;BME280;6016;41.928;25.556;2023-03-23T10:16:42;99252.31;;;15.73;68.39
11912;BME280;6016;41.928;25.556;2023-03-23T10:19:20;99245.75;;;16.17;67.16
11912;BME280;6016;41.928;25.556;2023-03-23T10:21:52;99266.41;;;16.47;65.54
11912;BME280;6016;41.928;25.556;2023-03-23T10:24:26;99268.88;;;16.57;64.52
11912;BME280;6016;41.928;25.556;2023-03-23T10:27:01;99263.59;;;16.80;65.95
11912;BME280;6016;41.928;25.556;2023-03-23T10:29:34;99194.34;;;16.25;64.89
11912;BME280;6016;41.928;25.556;2023-03-23T10:32:09;99256.75;;;16.78;62.24
11912;BME280;6016;41.928;25.556;2023-03-23T10:34:43;99261.19;;;16.62;62.32
11912;BME280;6016;41.928;25.556;2023-03-23T10:37:11;99261.44;;;16.44;63.22
11912;BME280;6016;41.928;25.556;2023-03-23T10:39:46;99224.91;;;16.29;64.72
11912;BME280;6016;41.928;25.556;2023-03-23T10:42:22;99253.75;;;16.49;64.51
11912;BME280;6016;41.928;25.556;2023-03-23T10:44:49;99255.63;;;16.40;64.56
11912;BME280;6016;41.928;25.556;2023-03-23T10:47:16;99256.34;;;16.34;62.84
11912;BME280;6016;41.928;25.556;2023-03-23T10:49:46;99256.84;;;16.29;62.75
11912;BME280;6016;41.928;25.556;2023-03-23T10:52:27;99117.84;;;15.31;63.41
11912;BME280;6016;41.928;25.556;2023-03-23T10:55:00;99254.59;;;16.10;64.69
11912;BME280;6016;41.928;25.556;2023-03-23T10:57:28;99251.31;;;15.99;65.47
11912;BME280;6016;41.928;25.556;2023-03-23T11:00:00;99233.56;;;15.75;64.99
11912;BME280;6016;41.928;25.556;2023-03-23T11:02:35;99252.31;;;15.82;64.84
11912;BME280;6016;41.928;25.556;2023-03-23T11:05:06;99243.84;;;15.78;65.77
11912;BME280;6016;41.928;25.556;2023-03-23T11:07:35;99244.53;;;15.72;65.18
11912;BME280;6016;41.928;25.556;2023-03-23T11:10:16;99146.78;;;15.17;64.67
11912;BME280;6016;41.928;25.556;2023-03-23T11:12:44;99207.16;;;15.57;66.58
11912;BME280;6016;41.928;25.556;2023-03-23T11:15:28;99236.06;;;15.77;65.57
11912;BME280;6016;41.928;25.556;2023-03-23T11:17:59;99249.66;;;15.73;65.89
11912;BME280;6016;41.928;25.556;2023-03-23T11:20:28;99231.44;;;15.45;66.72
11912;BME280;6016;41.928;25.556;2023-03-23T11:22:56;99155.59;;;15.01;66.64
11912;BME280;6016;41.928;25.556;2023-03-23T11:25:24;99237.09;;;15.42;66.97
11912;BME280;6016;41.928;25.556;2023-03-23T11:27:52;99228.81;;;15.37;66.46
11912;BME280;6016;41.928;25.556;2023-03-23T11:30:23;99203.56;;;15.16;66.83
11912;BME280;6016;41.928;25.556;2023-03-23T11:32:51;99205.41;;;15.08;67.28
11912;BME280;6016;41.928;25.556;2023-03-23T11:35:20;99219.19;;;15.11;67.16
11912;BME280;6016;41.928;25.556;2023-03-23T11:37:51;99207.91;;;15.01;66.61
11912;BME280;6016;41.928;25.556;2023-03-23T11:40:22;99186.97;;;14.98;67.11
11912;BME280;6016;41.928;25.556;2023-03-23T11:42:58;99202.56;;;15.09;66.75
11912;BME280;6016;41.928;25.556;2023-03-23T11:45:32;99219.34;;;15.18;67.29
11912;BME280;6016;41.928;25.556;2023-03-23T11:48:07;99143.31;;;14.75;67.82
11912;BME280;6016;41.928;25.556;2023-03-23T11:50:44;99214.88;;;15.02;68.59
11912;BME280;6016;41.928;25.556;2023-03-23T11:53:22;99203.75;;;15.07;67.77
11912;BME280;6016;41.928;25.556;2023-03-23T11:55:58;99183.50;;;14.81;67.14
11912;BME280;6016;41.928;25.556;2023-03-23T11:58:29;99101.59;;;14.34;68.23
11912;BME280;6016;41.928;25.556;2023-03-23T12:01:03;99208.53;;;14.95;69.35
11912;BME280;6016;41.928;25.556;2023-03-23T12:03:51;99208.22;;;15.06;69.32
11912;BME280;6016;41.928;25.556;2023-03-23T12:06:30;99149.75;;;14.56;68.97
11912;BME280;6016;41.928;25.556;2023-03-23T12:09:06;99204.06;;;14.87;69.48
11912;BME280;6016;41.928;25.556;2023-03-23T12:11:43;99171.00;;;14.65;69.34
11912;BME280;6016;41.928;25.556;2023-03-23T12:14:29;99172.31;;;14.60;68.64
11912;BME280;6016;41.928;25.556;2023-03-23T12:17:20;99200.25;;;14.73;69.86
11912;BME280;6016;41.928;25.556;2023-03-23T12:20:00;99177.94;;;14.57;70.03
11912;BME280;6016;41.928;25.556;2023-03-23T12:22:42;99186.38;;;14.36;68.76
11912;BME280;6016;41.928;25.556;2023-03-23T12:25:33;99200.53;;;14.70;68.44
11912;BME280;6016;41.928;25.556;2023-03-23T12:28:09;99204.19;;;14.69;68.86
11912;BME280;6016;41.928;25.556;2023-03-23T12:30:47;99139.56;;;14.27;68.61
11912;BME280;6016;41.928;25.556;2023-03-23T12:33:27;99195.06;;;14.71;68.42
11912;BME280;6016;41.928;25.556;2023-03-23T12:36:04;99191.09;;;14.75;68.47
11912;BME280;6016;41.928;25.556;2023-03-23T12:38:50;99202.41;;;14.94;68.65
11912;BME280;6016;41.928;25.556;2023-03-23T12:41:22;99198.75;;;15.12;69.53
11912;BME280;6016;41.928;25.556;2023-03-23T12:43:52;99198.91;;;15.27;68.40
11912;BME280;6016;41.928;25.556;2023-03-23T12:46:43;99194.41;;;15.36;67.19
11912;BME280;6016;41.928;25.556;2023-03-23T12:49:16;99196.09;;;15.12;69.02
11912;BME280;6016;41.928;25.556;2023-03-23T12:51:49;99105.28;;;14.50;68.76
11912;BME280;6016;41.928;25.556;2023-03-23T12:54:22;99180.16;;;14.79;68.62
11912;BME280;6016;41.928;25.556;2023-03-23T12:56:56;99195.78;;;15.07;67.52
11912;BME280;6016;41.928;25.556;2023-03-23T12:59:32;99194.78;;;15.08;67.59
11912;BME280;6016;41.928;25.556;2023-03-23T13:02:06;99189.28;;;15.17;66.67
11912;BME280;6016;41.928;25.556;2023-03-23T13:04:38;99176.69;;;15.03;65.31
11912;BME280;6016;41.928;25.556;2023-03-23T13:07:10;99190.94;;;15.27;67.71
11912;BME280;6016;41.928;25.556;2023-03-23T13:09:48;99187.94;;;15.22;65.64
11912;BME280;6016;41.928;25.556;2023-03-23T13:12:17;99196.25;;;15.10;66.18
11912;BME280;6016;41.928;25.556;2023-03-23T13:14:49;99187.97;;;15.13;67.25
11912;BME280;6016;41.928;25.556;2023-03-23T13:17:26;99183.97;;;15.17;66.79
11912;BME280;6016;41.928;25.556;2023-03-23T13:20:32;99184.66;;;15.03;68.84
11912;BME280;6016;41.928;25.556;2023-03-23T13:23:05;99187.97;;;15.13;66.65
11912;BME280;6016;41.928;25.556;2023-03-23T13:25:48;99156.44;;;15.02;65.49